TimeCDT,TemperatureF,Dew PointF,Humidity,Sea Level PressureIn,VisibilityMPH,Wind Direction,Wind SpeedMPH,Gust SpeedMPH,PrecipitationIn,Events,Conditions,WindDirDegrees,DateUTC
12:15 AM,60.3,37.2,42,30.33,10.0,SE,11.5,-,N/A,,Clear,130,2013-03-14 05:15:00
12:35 AM,59.4,37.9,45,30.33,10.0,SE,8.1,-,N/A,,Clear,130,2013-03-14 05:35:00
12:55 AM,57.7,37.6,47,30.34,10.0,ESE,6.9,-,N/A,,Clear,120,2013-03-14 05:55:00
1:15 AM,57.7,39.7,51,30.33,10.0,SE,6.9,-,N/A,,Clear,130,2013-03-14 06:15:00
1:35 AM,57.7,42.8,57,30.33,10.0,SE,8.1,-,N/A,,Clear,140,2013-03-14 06:35:00
1:55 AM,57.7,44.8,62,30.32,10.0,SE,6.9,-,N/A,,Clear,130,2013-03-14 06:55:00
2:15 AM,55.4,43.9,65,30.32,10.0,ESE,5.8,-,N/A,,Clear,110,2013-03-14 07:15:00
2:35 AM,52.7,41.9,67,30.33,10.0,ENE,5.8,-,N/A,,Clear,70,2013-03-14 07:35:00
2:55 AM,52.7,41.7,66,30.33,10.0,ENE,4.6,-,N/A,,Clear,70,2013-03-14 07:55:00
3:15 AM,52.5,43.3,71,30.33,10.0,ENE,4.6,-,N/A,,Clear,70,2013-03-14 08:15:00
3:35 AM,50.2,41.0,71,30.33,10.0,ENE,5.8,-,N/A,,Clear,60,2013-03-14 08:35:00
3:55 AM,50.2,42.8,76,30.33,10.0,ENE,6.9,-,N/A,,Clear,60,2013-03-14 08:55:00
4:15 AM,50.2,43.7,78,30.32,10.0,ENE,6.9,-,N/A,,Clear,70,2013-03-14 09:15:00
4:35 AM,48.9,43.2,80,30.32,10.0,ENE,6.9,-,N/A,,Clear,60,2013-03-14 09:35:00
4:55 AM,48.9,43.9,83,30.32,10.0,ENE,8.1,-,N/A,,Clear,60,2013-03-14 09:55:00
5:15 AM,49.1,43.9,82,30.31,10.0,ENE,8.1,-,N/A,,Clear,60,2013-03-14 10:15:00
5:35 AM,48.4,43.9,84,30.32,10.0,ENE,8.1,-,N/A,,Scattered Clouds,60,2013-03-14 10:35:00
5:55 AM,52.0,47.5,85,30.32,10.0,ENE,6.9,-,N/A,,Overcast,60,2013-03-14 10:55:00
6:15 AM,50.2,46.6,87,30.32,10.0,ENE,6.9,-,N/A,,Scattered Clouds,70,2013-03-14 11:15:00
6:35 AM,50.2,47.5,90,30.33,10.0,Calm,Calm,-,N/A,,Clear,0,2013-03-14 11:35:00
6:55 AM,49.6,47.1,91,30.33,10.0,ENE,5.8,-,N/A,,Clear,60,2013-03-14 11:55:00
7:15 AM,49.1,46.9,92,30.34,10.0,ENE,5.8,-,N/A,,Clear,60,2013-03-14 12:15:00
7:35 AM,50.2,48.0,92,30.34,10.0,ENE,5.8,-,N/A,,Mostly Cloudy,60,2013-03-14 12:35:00
7:55 AM,52.7,50.0,91,30.35,10.0,ENE,6.9,-,N/A,,Mostly Cloudy,60,2013-03-14 12:55:00
8:15 AM,52.7,49.8,90,30.35,10.0,ENE,5.8,-,N/A,,Mostly Cloudy,70,2013-03-14 13:15:00
8:35 AM,54.0,51.1,90,30.35,10.0,East,4.6,-,N/A,,Scattered Clouds,90,2013-03-14 13:35:00
8:55 AM,55.4,51.8,88,30.36,10.0,East,5.8,-,N/A,,Scattered Clouds,90,2013-03-14 13:55:00
9:15 AM,57.7,53.6,86,30.36,10.0,ESE,8.1,-,N/A,,Scattered Clouds,110,2013-03-14 14:15:00
9:35 AM,57.9,53.4,85,30.37,10.0,SE,8.1,-,N/A,,Scattered Clouds,130,2013-03-14 14:35:00
9:55 AM,59.4,53.2,80,30.37,10.0,SSE,9.2,-,N/A,,Scattered Clouds,160,2013-03-14 14:55:00
10:15 AM,61.0,54.0,78,30.37,10.0,SSE,11.5,-,N/A,,Scattered Clouds,150,2013-03-14 15:15:00
10:35 AM,62.8,54.5,74,30.37,10.0,SSE,11.5,-,N/A,,Mostly Cloudy,150,2013-03-14 15:35:00
10:55 AM,65.3,55.8,71,30.37,10.0,SSE,12.7,18.4,N/A,,Mostly Cloudy,150,2013-03-14 15:55:00
11:15 AM,65.3,55.0,69,30.37,10.0,SSE,10.4,-,N/A,,Mostly Cloudy,160,2013-03-14 16:15:00
11:35 AM,67.8,56.3,67,30.37,10.0,South,6.9,16.1,N/A,,Scattered Clouds,170,2013-03-14 16:35:00
11:55 AM,68.0,53.1,59,30.36,10.0,South,5.8,20.7,N/A,,Scattered Clouds,170,2013-03-14 16:55:00
12:15 PM,68.0,52.0,56,30.36,10.0,SE,8.1,-,N/A,,Scattered Clouds,140,2013-03-14 17:15:00
12:35 PM,70.5,51.3,50,30.35,10.0,SSE,12.7,18.4,N/A,,Scattered Clouds,150,2013-03-14 17:35:00
12:55 PM,72.9,50.5,45,30.35,10.0,South,6.9,10.4,N/A,,Clear,190,2013-03-14 17:55:00
1:15 PM,72.9,51.1,46,30.34,10.0,South,11.5,16.1,N/A,,Clear,180,2013-03-14 18:15:00
1:35 PM,74.8,48.0,39,30.33,10.0,SSE,8.1,-,N/A,,Clear,150,2013-03-14 18:35:00
1:55 PM,75.2,47.3,37,30.31,10.0,SSE,9.2,16.1,N/A,,Clear,150,2013-03-14 18:55:00
2:15 PM,75.4,46.2,35,30.30,10.0,South,8.1,18.4,N/A,,Clear,190,2013-03-14 19:15:00
2:35 PM,75.4,44.6,33,30.29,10.0,SSE,5.8,-,N/A,,Clear,160,2013-03-14 19:35:00
2:55 PM,75.6,43.9,32,30.28,10.0,SSW,4.6,17.3,N/A,,Clear,210,2013-03-14 19:55:00
3:15 PM,77.9,41.4,27,30.26,10.0,SSE,11.5,23.0,N/A,,Clear,160,2013-03-14 20:15:00
3:35 PM,77.9,41.0,27,30.25,10.0,SE,11.5,17.3,N/A,,Clear,140,2013-03-14 20:35:00
3:55 PM,78.4,38.8,24,30.24,10.0,SSE,13.8,21.9,N/A,,Clear,160,2013-03-14 20:55:00
4:15 PM,79.0,39.2,24,30.23,10.0,SE,12.7,20.7,N/A,,Clear,130,2013-03-14 21:15:00
4:55 PM,79.3,39.9,24,30.22,10.0,SSE,10.4,-,N/A,,Clear,150,2013-03-14 21:55:00
5:15 PM,79.7,38.3,23,30.21,10.0,SSE,9.2,-,N/A,,Clear,160,2013-03-14 22:15:00
5:35 PM,79.3,37.2,22,30.21,10.0,SE,5.8,-,N/A,,Clear,140,2013-03-14 22:35:00
5:55 PM,79.5,36.0,21,30.20,10.0,SSE,11.5,17.3,N/A,,Clear,150,2013-03-14 22:55:00
6:15 PM,79.2,36.3,21,30.20,10.0,South,11.5,17.3,N/A,,Clear,170,2013-03-14 23:15:00
6:35 PM,79.2,35.4,21,30.20,10.0,SSE,12.7,17.3,N/A,,Clear,150,2013-03-14 23:35:00
6:55 PM,78.3,36.1,22,30.20,10.0,SSE,12.7,-,N/A,,Clear,150,2013-03-14 23:55:00
7:15 PM,77.9,36.3,22,30.20,10.0,SSE,9.2,-,N/A,,Clear,150,2013-03-15 00:15:00
7:35 PM,77.0,37.4,24,30.21,10.0,SE,6.9,-,N/A,,Clear,130,2013-03-15 00:35:00
7:55 PM,75.4,37.9,26,30.21,10.0,SE,6.9,-,N/A,,Clear,140,2013-03-15 00:55:00
8:15 PM,72.9,38.1,28,30.21,10.0,SE,4.6,-,N/A,,Clear,130,2013-03-15 01:15:00
8:55 PM,69.8,37.4,31,30.21,10.0,SE,5.8,-,N/A,,Clear,130,2013-03-15 01:55:00
9:15 PM,68.0,36.5,31,30.21,10.0,SE,6.9,-,N/A,,Clear,130,2013-03-15 02:15:00
9:35 PM,68.0,37.0,32,30.22,10.0,ESE,6.9,-,N/A,,Clear,120,2013-03-15 02:35:00
9:55 PM,68.0,37.4,33,30.22,10.0,ESE,5.8,-,N/A,,Clear,120,2013-03-15 02:55:00
10:15 PM,68.0,38.3,34,30.23,10.0,ESE,5.8,-,N/A,,Clear,110,2013-03-15 03:15:00
10:55 PM,68.0,45.0,43,30.24,10.0,ESE,12.7,-,N/A,,Clear,120,2013-03-15 03:55:00
11:15 PM,66.4,47.1,50,30.24,10.0,ESE,10.4,-,N/A,,Clear,120,2013-03-15 04:15:00
11:35 PM,65.3,47.8,53,30.24,10.0,ESE,9.2,-,N/A,,Clear,120,2013-03-15 04:35:00
11:55 PM,66.2,49.6,55,30.24,10.0,SE,12.7,19.6,N/A,,Clear,130,2013-03-15 04:55:00